createdAt,value
2022-07-25T00:00:28.671Z,18.76
2022-07-25T00:03:27.094Z,18.69
2022-07-25T00:06:25.407Z,18.75
2022-07-25T00:09:22.261Z,18.68
2022-07-25T00:12:19.733Z,18.61
2022-07-25T00:15:16.675Z,18.39
2022-07-25T00:18:13.526Z,18.42
2022-07-25T00:21:10.676Z,18.52
2022-07-25T00:24:08.190Z,18.39
2022-07-25T00:27:05.598Z,18.26
2022-07-25T00:30:02.767Z,18.09
2022-07-25T00:32:59.608Z,18.15
2022-07-25T00:35:56.453Z,18.10
2022-07-25T00:38:53.367Z,18.05
2022-07-25T00:41:50.330Z,17.89
2022-07-25T00:44:47.187Z,18.10
2022-07-25T00:47:44.049Z,18.18
2022-07-25T00:50:41.086Z,17.90
2022-07-25T00:53:39.498Z,17.98
2022-07-25T00:56:37.083Z,18.16
2022-07-25T00:59:34.094Z,18.28
2022-07-25T01:02:31.011Z,18.09
2022-07-25T01:05:28.036Z,17.93
2022-07-25T01:08:25.308Z,17.94
2022-07-25T01:11:22.974Z,17.99
2022-07-25T01:14:19.823Z,17.80
2022-07-25T01:17:16.889Z,17.88
2022-07-25T01:20:21.860Z,18.17
2022-07-25T01:23:18.686Z,17.76
2022-07-25T01:26:15.524Z,17.69
2022-07-25T01:29:12.371Z,17.64
2022-07-25T01:32:09.214Z,17.73
2022-07-25T01:35:08.235Z,17.54
2022-07-25T01:38:05.057Z,17.63
2022-07-25T01:41:01.926Z,17.56
2022-07-25T01:43:58.807Z,17.34
2022-07-25T01:46:55.646Z,17.64
2022-07-25T01:49:52.871Z,17.83
2022-07-25T01:52:49.724Z,17.46
2022-07-25T01:55:47.238Z,17.37
2022-07-25T01:58:44.406Z,17.33
2022-07-25T02:01:41.299Z,17.30
2022-07-25T02:04:38.195Z,17.18
2022-07-25T02:07:35.623Z,17.20
2022-07-25T02:10:32.801Z,17.24
2022-07-25T02:13:29.690Z,17.03
2022-07-25T02:16:29.057Z,17.07
2022-07-25T02:19:26.328Z,17.01
2022-07-25T02:22:23.231Z,16.97
2022-07-25T02:25:20.667Z,16.96
2022-07-25T02:28:18.145Z,16.97
2022-07-25T02:31:15.149Z,16.95
2022-07-25T02:34:12.424Z,17.01
2022-07-25T02:37:09.241Z,16.78
2022-07-25T02:40:07.408Z,16.79
2022-07-25T02:43:04.225Z,16.74
2022-07-25T02:46:01.161Z,16.80
2022-07-25T02:48:59.036Z,16.72
2022-07-25T02:51:57.550Z,16.71
2022-07-25T02:54:54.379Z,16.68
2022-07-25T02:57:51.307Z,16.72
2022-07-25T03:00:48.188Z,16.54
2022-07-25T03:03:45.082Z,16.60
2022-07-25T03:06:41.963Z,16.56
2022-07-25T03:09:38.809Z,16.67
2022-07-25T03:12:36.411Z,16.47
2022-07-25T03:15:33.264Z,16.68
2022-07-25T03:18:30.114Z,16.58
2022-07-25T03:21:26.949Z,16.64
2022-07-25T03:24:23.778Z,16.49
2022-07-25T03:27:20.628Z,16.60
2022-07-25T03:30:17.597Z,16.54
2022-07-25T03:33:14.412Z,16.41
2022-07-25T03:36:11.697Z,16.43
2022-07-25T03:39:08.573Z,16.45
2022-07-25T03:42:05.516Z,16.53
2022-07-25T03:45:02.646Z,16.48
2022-07-25T03:47:59.502Z,16.44
2022-07-25T03:50:57.352Z,16.44
2022-07-25T03:54:03.814Z,16.56
2022-07-25T03:57:01.313Z,16.61
2022-07-25T03:59:58.143Z,16.74
2022-07-25T04:02:54.979Z,16.49
2022-07-25T04:05:51.810Z,16.57
2022-07-25T04:08:48.777Z,16.61
2022-07-25T04:11:45.602Z,16.67
2022-07-25T04:14:42.455Z,16.61
2022-07-25T04:17:39.496Z,16.70
2022-07-25T04:20:37.548Z,16.72
2022-07-25T04:23:34.791Z,16.52
2022-07-25T04:26:31.685Z,16.76
2022-07-25T04:29:29.428Z,16.87
2022-07-25T04:32:26.308Z,16.89
2022-07-25T04:35:23.461Z,16.93
2022-07-25T04:38:20.672Z,16.90
2022-07-25T04:41:17.723Z,16.80
2022-07-25T04:44:14.624Z,17.00
2022-07-25T04:47:11.506Z,16.97
2022-07-25T04:50:09.007Z,17.17
2022-07-25T04:53:06.101Z,17.19
2022-07-25T04:56:02.968Z,17.17
2022-07-25T04:59:06.352Z,17.32
2022-07-25T05:02:04.265Z,17.24
2022-07-25T05:05:02.881Z,17.49
2022-07-25T05:08:00.984Z,17.30
2022-07-25T05:10:57.897Z,17.55
2022-07-25T05:13:54.784Z,17.53
2022-07-25T05:16:51.651Z,17.70
2022-07-25T05:19:48.537Z,17.63
2022-07-25T05:22:45.445Z,17.71
2022-07-25T05:25:42.362Z,17.62
2022-07-25T05:28:39.429Z,17.77
2022-07-25T05:31:37.112Z,17.88
2022-07-25T05:34:35.844Z,17.55
2022-07-25T05:37:32.663Z,17.71
2022-07-25T05:40:29.500Z,18.20
2022-07-25T05:43:26.586Z,18.03
2022-07-25T05:46:23.432Z,17.99
2022-07-25T05:49:23.013Z,18.53
2022-07-25T05:52:19.853Z,18.39
2022-07-25T05:55:17.582Z,18.63
2022-07-25T05:58:14.734Z,19.02
2022-07-25T06:01:15.921Z,18.78
2022-07-25T06:04:12.766Z,19.17
2022-07-25T06:07:09.597Z,19.63
2022-07-25T06:10:09.649Z,19.56
2022-07-25T06:13:06.557Z,19.70
2022-07-25T06:16:04.709Z,20.31
2022-07-25T06:19:01.605Z,20.23
2022-07-25T06:21:58.478Z,20.21
2022-07-25T06:24:55.314Z,20.45
2022-07-25T06:27:52.142Z,20.69
2022-07-25T06:30:48.979Z,20.90
2022-07-25T06:33:45.884Z,21.07
2022-07-25T06:36:42.710Z,21.80
2022-07-25T06:39:43.837Z,21.54
2022-07-25T06:42:44.886Z,21.77
2022-07-25T06:45:46.988Z,22.07
2022-07-25T06:48:43.857Z,21.96
2022-07-25T06:51:40.713Z,21.86
2022-07-25T06:54:37.593Z,22.17
2022-07-25T06:57:34.487Z,22.36
2022-07-25T07:00:31.411Z,22.46
2022-07-25T07:03:28.633Z,22.51
2022-07-25T07:06:25.567Z,22.52
2022-07-25T07:09:22.436Z,22.84
2022-07-25T07:12:19.266Z,22.71
2022-07-25T07:15:17.251Z,22.75
2022-07-25T07:18:14.090Z,22.92
2022-07-25T07:21:11.031Z,22.91
2022-07-25T07:24:24.029Z,23.13
2022-07-25T07:27:23.577Z,23.32
2022-07-25T07:30:24.881Z,23.37
2022-07-25T07:33:26.757Z,23.41
2022-07-25T07:36:23.612Z,23.71
2022-07-25T07:39:20.456Z,23.64
2022-07-25T07:42:17.421Z,23.77
2022-07-25T07:45:22.587Z,23.84
2022-07-25T07:48:19.411Z,23.95
2022-07-25T07:51:16.260Z,24.18
2022-07-25T07:54:31.583Z,24.25
2022-07-25T07:57:28.402Z,24.22
2022-07-25T08:00:31.049Z,24.28
2022-07-25T08:03:27.902Z,24.76
2022-07-25T08:06:24.879Z,24.59
2022-07-25T08:09:21.798Z,24.62
2022-07-25T08:12:18.616Z,24.35
2022-07-25T08:15:16.351Z,25.11
2022-07-25T08:18:16.933Z,25.51
2022-07-25T08:21:14.921Z,25.03
2022-07-25T08:24:11.787Z,25.36
2022-07-25T08:27:08.642Z,25.47
2022-07-25T08:30:08.007Z,25.66
2022-07-25T08:33:10.516Z,25.93
2022-07-25T08:36:10.785Z,26.41
2022-07-25T08:39:07.646Z,26.85
2022-07-25T08:42:10.626Z,26.55
2022-07-25T08:45:10.545Z,26.49
2022-07-25T08:48:07.512Z,26.89
2022-07-25T08:51:05.779Z,26.86
2022-07-25T08:54:03.431Z,27.37
2022-07-25T08:57:00.483Z,27.80
2022-07-25T08:59:59.404Z,27.68
2022-07-25T09:03:01.841Z,27.88
2022-07-25T09:05:59.121Z,27.92
2022-07-25T09:08:59.770Z,27.95
2022-07-25T09:11:56.671Z,28.81
2022-07-25T09:14:53.817Z,28.40
2022-07-25T09:17:52.504Z,28.41
2022-07-25T09:20:58.578Z,28.28
2022-07-25T09:23:55.436Z,28.32
2022-07-25T09:26:56.527Z,28.97
2022-07-25T09:29:53.447Z,29.33
2022-07-25T09:33:03.299Z,29.89
2022-07-25T09:36:11.907Z,29.51
2022-07-25T09:39:08.760Z,29.83
2022-07-25T09:42:25.391Z,29.91
2022-07-25T09:45:22.289Z,29.99
2022-07-25T09:48:21.009Z,29.89
2022-07-25T09:51:17.901Z,30.13
2022-07-25T09:54:15.625Z,30.51
2022-07-25T09:57:12.584Z,30.82
2022-07-25T10:00:10.220Z,30.45
2022-07-25T10:03:39.167Z,30.82
2022-07-25T10:06:49.657Z,31.15
2022-07-25T10:09:50.468Z,30.81
2022-07-25T10:13:10.554Z,31.16
2022-07-25T10:16:17.731Z,31.60
2022-07-25T10:19:15.158Z,31.26
2022-07-25T10:22:12.524Z,31.46
2022-07-25T10:25:19.381Z,32.09
2022-07-25T10:28:19.869Z,32.01
2022-07-25T10:31:35.697Z,31.91
2022-07-25T10:34:33.132Z,32.47
2022-07-25T10:37:32.508Z,31.95
2022-07-25T10:40:37.672Z,32.80
2022-07-25T10:43:40.516Z,32.45
2022-07-25T10:46:37.463Z,32.55
2022-07-25T10:50:00.239Z,32.62
2022-07-25T10:53:00.733Z,32.02
2022-07-25T10:56:10.262Z,32.04
2022-07-25T10:59:07.576Z,33.28
2022-07-25T11:02:08.405Z,32.42
2022-07-25T11:05:06.479Z,33.06
2022-07-25T11:08:21.277Z,32.73
2022-07-25T11:11:18.764Z,31.59
2022-07-25T11:14:21.772Z,32.22
2022-07-25T11:17:22.403Z,33.37
2022-07-25T11:20:20.052Z,33.19
2022-07-25T11:23:22.373Z,33.07
2022-07-25T11:26:19.746Z,34.03
2022-07-25T11:29:27.017Z,34.28
2022-07-25T11:32:23.874Z,33.13
2022-07-25T11:35:27.146Z,32.88
2022-07-25T11:38:24.152Z,33.84
2022-07-25T11:41:31.509Z,33.85
2022-07-25T11:44:47.246Z,34.37
2022-07-25T11:48:07.309Z,33.83
2022-07-25T11:51:16.274Z,34.20
2022-07-25T11:54:16.608Z,33.38
2022-07-25T11:57:25.377Z,34.62
2022-07-25T12:00:22.645Z,33.87
2022-07-25T12:03:23.594Z,34.48
2022-07-25T12:06:20.522Z,33.35
2022-07-25T12:09:22.485Z,34.66
2022-07-25T12:12:19.356Z,34.72
2022-07-25T12:15:22.823Z,35.16
2022-07-25T12:18:19.681Z,35.49
2022-07-25T12:21:16.518Z,35.08
2022-07-25T12:24:13.384Z,35.30
2022-07-25T12:27:10.769Z,35.60
2022-07-25T12:30:09.850Z,34.46
2022-07-25T12:33:07.541Z,35.78
2022-07-25T12:36:08.455Z,33.70
2022-07-25T12:39:05.916Z,34.40
2022-07-25T12:42:02.971Z,33.69
2022-07-25T12:45:00.322Z,34.12
2022-07-25T12:47:57.186Z,34.10
2022-07-25T12:50:54.043Z,33.45
2022-07-25T12:53:50.920Z,34.02
2022-07-25T12:56:47.773Z,33.84
2022-07-25T12:59:44.706Z,34.55
2022-07-25T13:02:42.017Z,34.49
2022-07-25T13:05:40.417Z,34.78
2022-07-25T13:08:37.847Z,34.50
2022-07-25T13:11:34.695Z,33.46
2022-07-25T13:14:31.539Z,34.08
2022-07-25T13:17:28.525Z,33.94
2022-07-25T13:20:25.469Z,34.28
2022-07-25T13:23:22.556Z,34.39
2022-07-25T13:26:19.587Z,34.18
2022-07-25T13:29:16.471Z,33.83
2022-07-25T13:32:16.087Z,33.90
2022-07-25T13:35:16.411Z,34.01
2022-07-25T13:38:15.997Z,33.12
2022-07-25T13:41:14.385Z,34.06
2022-07-25T13:44:13.632Z,33.56
2022-07-25T13:47:10.485Z,32.82
2022-07-25T13:50:08.214Z,32.77
2022-07-25T13:53:06.126Z,33.34
2022-07-25T13:56:04.631Z,32.85
2022-07-25T13:59:04.061Z,32.41
2022-07-25T14:02:01.281Z,32.67
2022-07-25T14:05:03.552Z,32.20
2022-07-25T14:08:01.007Z,31.94
2022-07-25T14:10:58.187Z,32.48
2022-07-25T14:13:56.007Z,32.98
2022-07-25T14:16:53.104Z,33.20
2022-07-25T14:19:50.130Z,34.00
2022-07-25T14:22:46.972Z,34.31
2022-07-25T14:25:43.956Z,33.61
2022-07-25T14:28:40.794Z,33.11
2022-07-25T14:31:40.164Z,32.67
2022-07-25T14:34:40.428Z,32.93
2022-07-25T14:37:37.893Z,32.48
2022-07-25T14:40:34.784Z,32.85
2022-07-25T14:43:31.847Z,32.68
2022-07-25T14:46:31.084Z,32.10
2022-07-25T14:49:29.119Z,32.27
2022-07-25T14:52:26.036Z,32.29
2022-07-25T14:55:23.301Z,32.12
2022-07-25T14:58:20.230Z,31.90
2022-07-25T15:01:18.782Z,31.88
2022-07-25T15:04:19.735Z,32.21
2022-07-25T15:07:16.623Z,32.47
2022-07-25T15:10:14.389Z,32.20
2022-07-25T15:13:30.372Z,32.99
2022-07-25T15:16:27.751Z,32.71
2022-07-25T15:19:25.841Z,31.69
2022-07-25T15:22:23.473Z,32.09
2022-07-25T15:25:59.566Z,32.03
2022-07-25T15:28:38.123Z,31.97
2022-07-25T15:31:35.112Z,31.49
2022-07-25T15:34:33.160Z,31.33
2022-07-25T15:37:29.977Z,31.31
2022-07-25T15:40:27.423Z,31.23
2022-07-25T15:43:25.419Z,31.04
2022-07-25T15:46:22.339Z,30.32
2022-07-25T15:49:21.520Z,30.44
2022-07-25T15:52:18.392Z,30.09
2022-07-25T15:55:15.365Z,30.08
2022-07-25T15:58:12.839Z,29.63
2022-07-25T16:01:09.936Z,29.91
2022-07-25T16:04:06.869Z,29.48
2022-07-25T16:07:04.354Z,29.17
2022-07-25T16:10:01.639Z,29.03
2022-07-25T16:12:58.928Z,28.92
2022-07-25T16:15:56.136Z,28.79
2022-07-25T16:18:53.058Z,28.65
2022-07-25T16:21:49.913Z,28.80
2022-07-25T16:24:46.815Z,29.40
2022-07-25T16:27:43.719Z,29.75
2022-07-25T16:30:41.867Z,29.88
2022-07-25T16:33:39.310Z,30.03
2022-07-25T16:36:36.446Z,30.44
2022-07-25T16:39:33.375Z,30.05
2022-07-25T16:42:30.227Z,30.39
2022-07-25T16:45:28.154Z,30.15
2022-07-25T16:48:25.105Z,30.55
2022-07-25T16:51:22.173Z,30.44
2022-07-25T16:54:19.091Z,29.93
2022-07-25T16:57:16.099Z,29.13
2022-07-25T17:00:13.586Z,28.70
2022-07-25T17:03:10.450Z,29.31
2022-07-25T17:06:07.833Z,30.19
2022-07-25T17:09:05.505Z,30.15
2022-07-25T17:12:02.551Z,29.49
2022-07-25T17:14:59.380Z,29.10
2022-07-25T17:17:56.212Z,29.28
2022-07-25T17:20:54.546Z,29.69
2022-07-25T17:23:53.157Z,29.14
2022-07-25T17:26:50.086Z,29.40
2022-07-25T17:29:47.032Z,28.87
2022-07-25T17:32:44.044Z,28.74
2022-07-25T17:35:41.025Z,29.05
2022-07-25T17:38:38.406Z,29.02
2022-07-25T17:41:35.333Z,28.79
2022-07-25T17:44:32.207Z,28.53
2022-07-25T17:47:29.090Z,28.42
2022-07-25T17:50:29.299Z,28.03
2022-07-25T17:53:26.394Z,27.72
2022-07-25T17:56:23.279Z,27.75
2022-07-25T17:59:20.162Z,27.50
2022-07-25T18:02:17.231Z,27.62
2022-07-25T18:05:14.933Z,27.28
2022-07-25T18:08:11.802Z,27.04
2022-07-25T18:11:08.897Z,26.93
2022-07-25T18:14:05.975Z,26.67
2022-07-25T18:17:03.747Z,26.74
2022-07-25T18:20:00.582Z,27.27
2022-07-25T18:22:58.639Z,26.90
2022-07-25T18:25:55.618Z,26.12
2022-07-25T18:28:52.525Z,26.50
2022-07-25T18:31:49.421Z,26.34
2022-07-25T18:34:46.297Z,26.16
2022-07-25T18:37:43.283Z,26.22
2022-07-25T18:40:40.125Z,26.18
2022-07-25T18:43:36.980Z,26.12
2022-07-25T18:46:34.004Z,25.95
2022-07-25T18:49:31.051Z,25.41
2022-07-25T18:52:30.013Z,25.11
2022-07-25T18:55:26.886Z,25.58
2022-07-25T18:58:23.769Z,25.18
2022-07-25T19:01:20.642Z,25.10
2022-07-25T19:04:18.720Z,25.02
2022-07-25T19:07:15.724Z,24.93
2022-07-25T19:10:12.732Z,24.78
2022-07-25T19:13:15.223Z,24.44
2022-07-25T19:16:19.249Z,24.36
2022-07-25T19:19:16.612Z,24.15
2022-07-25T19:22:13.471Z,23.88
2022-07-25T19:25:10.969Z,23.91
2022-07-25T19:28:07.847Z,24.21
2022-07-25T19:31:04.829Z,23.58
2022-07-25T19:34:01.709Z,23.75
2022-07-25T19:36:58.722Z,23.74
2022-07-25T19:39:55.962Z,23.78
2022-07-25T19:42:52.801Z,23.67
2022-07-25T19:45:49.710Z,23.63
2022-07-25T19:48:46.605Z,23.26
2022-07-25T19:51:43.521Z,23.40
2022-07-25T19:54:40.425Z,23.34
2022-07-25T19:57:37.302Z,22.91
2022-07-25T20:00:34.733Z,23.02
2022-07-25T20:03:31.582Z,23.21
2022-07-25T20:06:28.553Z,23.06
2022-07-25T20:09:25.396Z,22.98
2022-07-25T20:12:22.290Z,22.93
2022-07-25T20:15:19.147Z,22.68
2022-07-25T20:18:19.456Z,22.93
2022-07-25T20:21:17.999Z,22.84
2022-07-25T20:24:19.411Z,22.99
2022-07-25T20:27:18.231Z,23.20
2022-07-25T20:30:15.976Z,23.62
2022-07-25T20:33:12.810Z,23.31
2022-07-25T20:36:09.926Z,23.46
2022-07-25T20:39:08.326Z,23.45
2022-07-25T20:42:07.552Z,23.62
2022-07-25T20:45:06.546Z,23.78
2022-07-25T20:48:05.075Z,23.47
2022-07-25T20:51:02.041Z,23.50
2022-07-25T20:53:58.965Z,23.64
2022-07-25T20:56:56.057Z,23.42
2022-07-25T20:59:52.932Z,23.55
2022-07-25T21:02:49.833Z,23.70
2022-07-25T21:05:47.904Z,23.49
2022-07-25T21:08:44.815Z,23.74
2022-07-25T21:11:41.672Z,23.46
2022-07-25T21:14:38.519Z,23.29
2022-07-25T21:17:35.422Z,23.14
2022-07-25T21:20:32.286Z,22.93
2022-07-25T21:23:29.229Z,22.94
2022-07-25T21:26:26.066Z,22.84
2022-07-25T21:29:22.937Z,22.80
2022-07-25T21:32:21.269Z,22.81
2022-07-25T21:35:18.264Z,22.81
2022-07-25T21:38:26.028Z,22.81
2022-07-25T21:41:24.553Z,22.73
2022-07-25T21:44:21.467Z,22.89
2022-07-25T21:47:20.381Z,22.36
2022-07-25T21:50:36.028Z,22.68
2022-07-25T21:53:41.260Z,22.54
2022-07-25T21:56:38.318Z,22.24
2022-07-25T21:59:35.176Z,22.33
2022-07-25T22:02:31.993Z,22.31
2022-07-25T22:05:28.844Z,22.41
2022-07-25T22:08:26.397Z,22.02
2022-07-25T22:11:42.962Z,22.00
2022-07-25T22:14:41.105Z,22.16
2022-07-25T22:17:48.407Z,22.17
2022-07-25T22:20:46.647Z,21.93
2022-07-25T22:23:43.570Z,22.11
2022-07-25T22:26:40.426Z,21.98
2022-07-25T22:29:37.280Z,21.39
2022-07-25T22:32:34.121Z,21.57
2022-07-25T22:35:31.038Z,21.54
2022-07-25T22:38:27.893Z,21.42
2022-07-25T22:41:24.706Z,21.06
2022-07-25T22:44:21.597Z,20.97
2022-07-25T22:47:18.429Z,21.02
2022-07-25T22:50:15.285Z,21.32
2022-07-25T22:53:12.498Z,20.77
2022-07-25T22:56:09.431Z,20.87
2022-07-25T22:59:06.459Z,21.06
2022-07-25T23:02:03.536Z,21.07
2022-07-25T23:05:00.408Z,21.04
2022-07-25T23:07:57.258Z,20.95
2022-07-25T23:10:54.334Z,21.01
2022-07-25T23:13:51.682Z,20.85
2022-07-25T23:17:08.487Z,20.92
2022-07-25T23:20:06.852Z,21.29
2022-07-25T23:23:04.083Z,21.10
2022-07-25T23:26:01.214Z,21.11
2022-07-25T23:28:58.119Z,21.29
2022-07-25T23:31:55.002Z,21.44
2022-07-25T23:34:51.882Z,21.61
2022-07-25T23:37:48.716Z,21.41
2022-07-25T23:40:45.589Z,21.34
2022-07-25T23:43:57.397Z,21.29
2022-07-25T23:46:57.346Z,21.38
2022-07-25T23:49:54.356Z,21.20
2022-07-25T23:52:52.020Z,21.10
2022-07-25T23:55:48.859Z,21.05
2022-07-25T23:58:46.799Z,21.34
